Time;durP1;ratioP1;P1;durP2;ratioP2;P2;SDS_P1;SDS_P2;PMS_P1;PMS_P2;Temp;Humidity;BMP_temperature;BMP_pressure;BME280_temperature;BME280_humidity;BME280_pressure;Samples;Min_cycle;Max_cycle;Signal;HPM_P1;HPM_P2
2021/01/12 00:01:43;;;;;;;20.20;13.00;;;4.30;50.50;;;;;;5049698;28;20478;-41
2021/01/12 00:04:10;;;;;;;18.40;12.43;;;4.60;50.00;;;;;;5049459;28;20423;-41
2021/01/12 00:06:37;;;;;;;18.73;12.70;;;4.80;49.70;;;;;;5050080;28;20464;-41
2021/01/12 00:09:04;;;;;;;18.10;11.90;;;5.00;49.50;;;;;;5049685;28;20515;-41
2021/01/12 00:11:30;;;;;;;16.40;11.80;;;5.20;49.10;;;;;;5049819;28;20491;-41
2021/01/12 00:13:56;;;;;;;18.70;13.30;;;5.20;48.70;;;;;;5050671;28;20513;-41
2021/01/12 00:16:22;;;;;;;16.33;11.87;;;5.30;48.50;;;;;;5054354;28;20617;-41
2021/01/12 00:18:48;;;;;;;15.73;11.47;;;5.10;48.40;;;;;;5053130;28;20656;-41
2021/01/12 00:21:14;;;;;;;16.27;11.37;;;4.80;49.00;;;;;;5051740;28;20223;-41
2021/01/12 00:23:40;;;;;;;14.00;11.00;;;4.80;49.50;;;;;;5052620;28;20431;-41
2021/01/12 00:26:06;;;;;;;18.73;11.80;;;4.90;49.40;;;;;;5053948;28;20833;-41
2021/01/12 00:28:36;;;;;;;16.00;11.43;;;4.80;49.10;;;;;;5040293;28;20189;-41
2021/01/12 00:31:03;;;;;;;17.17;10.93;;;4.60;49.20;;;;;;5052670;28;20423;-41
2021/01/12 00:33:28;;;;;;;16.63;11.73;;;4.00;49.60;;;;;;5073040;28;20426;-41
2021/01/12 00:35:54;;;;;;;15.47;11.43;;;4.00;50.60;;;;;;5058638;28;20442;-41
2021/01/12 00:38:20;;;;;;;15.30;10.83;;;4.30;50.50;;;;;;5053128;28;20279;-41
2021/01/12 00:40:46;;;;;;;18.07;11.60;;;4.50;49.90;;;;;;5052513;28;20231;-41
2021/01/12 00:43:11;;;;;;;16.80;11.57;;;4.30;49.80;;;;;;5053145;28;20439;-42
2021/01/12 00:45:37;;;;;;;17.43;11.50;;;4.30;50.20;;;;;;5053330;28;20189;-41
2021/01/12 00:48:03;;;;;;;16.43;10.90;;;4.30;50.20;;;;;;5051308;28;20196;-41
2021/01/12 00:50:28;;;;;;;22.33;11.43;;;4.40;50.00;;;;;;5051436;28;20250;-41
2021/01/12 00:52:54;;;;;;;13.90;10.10;;;4.40;49.90;;;;;;5051687;28;20576;-41
2021/01/12 00:55:19;;;;;;;15.17;10.13;;;4.50;49.90;;;;;;5052986;28;20200;-41
2021/01/12 00:57:45;;;;;;;19.40;11.30;;;4.60;49.70;;;;;;5052892;28;20609;-41
2021/01/12 01:00:11;;;;;;;15.87;10.97;;;4.80;49.50;;;;;;5052235;28;20185;-41
2021/01/12 01:02:36;;;;;;;16.20;10.67;;;4.90;49.10;;;;;;5052079;28;20943;-41
2021/01/12 01:05:02;;;;;;;15.20;10.30;;;4.90;49.00;;;;;;5053648;28;20425;-41
2021/01/12 01:07:27;;;;;;;16.23;10.30;;;4.60;49.30;;;;;;5052501;28;20197;-41
2021/01/12 01:09:53;;;;;;;15.20;10.43;;;4.60;49.60;;;;;;5052313;28;20725;-41
2021/01/12 01:12:19;;;;;;;17.47;10.90;;;4.80;49.70;;;;;;5051540;28;20192;-41
2021/01/12 01:14:44;;;;;;;19.13;12.00;;;4.90;49.50;;;;;;5053031;28;20845;-41
2021/01/12 01:17:10;;;;;;;17.37;11.07;;;5.00;49.20;;;;;;5050703;28;20280;-42
2021/01/12 01:19:35;;;;;;;13.97;9.17;;;5.10;48.90;;;;;;5052595;28;20185;-41
2021/01/12 01:22:01;;;;;;;13.80;9.37;;;5.30;48.70;;;;;;5051969;28;20942;-41
2021/01/12 01:24:26;;;;;;;12.70;9.20;;;5.30;48.30;;;;;;5051058;28;20189;-41
2021/01/12 01:26:57;;;;;;;16.83;10.70;;;5.30;48.50;;;;;;5052182;28;20196;-41
2021/01/12 01:29:23;;;;;;;16.03;10.57;;;5.30;48.60;;;;;;5052300;28;20193;-41
2021/01/12 01:31:48;;;;;;;15.63;9.90;;;5.40;48.50;;;;;;5052361;28;20834;-41
2021/01/12 01:34:14;;;;;;;15.20;10.57;;;5.10;48.30;;;;;;5051821;28;20598;-41
2021/01/12 01:36:39;;;;;;;12.90;9.43;;;5.00;48.80;;;;;;5052309;28;20188;-41
2021/01/12 01:39:06;;;;;;;14.63;9.90;;;5.10;49.10;;;;;;5052179;28;20196;-41
2021/01/12 01:41:32;;;;;;;11.13;9.27;;;5.20;49.00;;;;;;5052186;28;20236;-41
2021/01/12 01:43:58;;;;;;;13.53;8.20;;;5.40;48.80;;;;;;5049318;28;20907;-41
2021/01/12 01:46:23;;;;;;;12.53;8.90;;;5.50;48.50;;;;;;5051572;28;20514;-41
2021/01/12 01:48:50;;;;;;;11.40;8.50;;;5.40;48.30;;;;;;5051595;28;20644;-41
2021/01/12 01:51:16;;;;;;;13.87;9.23;;;5.50;48.60;;;;;;5052344;28;20245;-41
2021/01/12 01:53:42;;;;;;;13.80;8.93;;;5.60;48.60;;;;;;5051295;28;20438;-41
2021/01/12 01:56:08;;;;;;;14.40;8.47;;;5.60;48.60;;;;;;5051855;28;20423;-41
2021/01/12 01:58:41;;;;;;;11.43;7.40;;;5.50;48.50;;;;;;5051555;28;20430;-41
2021/01/12 02:01:07;;;;;;;12.70;8.27;;;5.60;48.70;;;;;;5051827;28;20246;-41
2021/01/12 02:03:45;;;;;;;14.23;8.77;;;5.50;48.90;;;;;;5051158;28;20442;-41
2021/01/12 02:06:21;;;;;;;14.93;9.73;;;5.50;48.90;;;;;;5052040;28;20435;-41
2021/01/12 02:09:02;;;;;;;12.63;8.37;;;5.40;49.00;;;;;;5051194;28;20442;-41
2021/01/12 02:11:32;;;;;;;11.33;7.40;;;5.30;49.30;;;;;;5050196;28;20447;-41
2021/01/12 02:14:04;;;;;;;10.73;7.03;;;5.40;49.40;;;;;;5050583;28;20443;-41
2021/01/12 02:16:30;;;;;;;13.90;8.87;;;5.40;49.50;;;;;;5051177;28;20453;-41
2021/01/12 02:18:57;;;;;;;11.17;8.03;;;5.50;49.70;;;;;;5051418;28;20415;-41
2021/01/12 02:21:23;;;;;;;10.30;7.40;;;5.60;49.40;;;;;;5051487;28;20909;-41
2021/01/12 02:23:52;;;;;;;9.37;8.13;;;5.50;49.70;;;;;;5051329;28;20419;-41
2021/01/12 02:26:17;;;;;;;9.93;6.90;;;5.70;49.70;;;;;;5050714;28;20463;-41
2021/01/12 02:28:43;;;;;;;10.10;7.43;;;5.50;49.60;;;;;;5050984;28;20481;-41
2021/01/12 02:31:09;;;;;;;8.60;7.27;;;5.60;49.80;;;;;;5051148;28;20189;-41
2021/01/12 02:33:38;;;;;;;10.20;6.70;;;5.70;49.70;;;;;;5050989;28;20243;-41
2021/01/12 02:36:06;;;;;;;9.50;7.17;;;5.60;49.70;;;;;;5050623;28;20196;-41
2021/01/12 02:38:31;;;;;;;10.33;7.17;;;5.60;49.90;;;;;;5050609;28;20902;-41
2021/01/12 02:41:10;;;;;;;9.87;6.97;;;5.60;49.80;;;;;;5049471;28;20546;-41
2021/01/12 02:43:35;;;;;;;11.40;6.67;;;5.40;49.90;;;;;;5050382;28;20184;-41
2021/01/12 02:46:01;;;;;;;9.00;6.77;;;5.40;50.30;;;;;;5050833;28;20438;-42
2021/01/12 02:48:27;;;;;;;12.00;7.50;;;5.50;50.20;;;;;;5050334;28;20220;-41
2021/01/12 02:50:53;;;;;;;9.20;6.73;;;5.50;50.40;;;;;;5051136;28;20197;-41
2021/01/12 02:53:18;;;;;;;10.67;6.80;;;5.40;50.20;;;;;;5050142;28;20472;-42
2021/01/12 02:55:44;;;;;;;9.50;6.30;;;5.50;50.70;;;;;;5050670;28;20490;-41
2021/01/12 02:58:09;;;;;;;9.13;6.37;;;5.70;50.50;;;;;;5049959;28;20282;-41
2021/01/12 03:00:35;;;;;;;10.87;7.03;;;5.80;50.10;;;;;;5050204;28;20219;-40
2021/01/12 03:03:00;;;;;;;12.40;6.50;;;5.90;49.90;;;;;;5050130;28;20189;-40
2021/01/12 03:05:26;;;;;;;8.53;6.80;;;5.90;49.80;;;;;;5050312;28;20662;-40
2021/01/12 03:07:53;;;;;;;7.40;5.23;;;5.90;49.80;;;;;;5048435;28;20558;-40
2021/01/12 03:10:19;;;;;;;9.57;6.70;;;5.50;50.10;;;;;;5050388;28;20571;-40
2021/01/12 03:12:44;;;;;;;6.70;4.83;;;5.60;50.60;;;;;;5049891;28;20525;-40
2021/01/12 03:15:11;;;;;;;7.40;5.80;;;5.60;50.40;;;;;;5051005;28;20184;-40
2021/01/12 03:17:36;;;;;;;7.73;5.53;;;5.80;50.30;;;;;;5049167;28;20200;-40
2021/01/12 03:20:02;;;;;;;8.17;5.30;;;6.00;49.90;;;;;;5050444;28;21039;-40
2021/01/12 03:22:28;;;;;;;9.13;6.03;;;6.00;49.50;;;;;;5049547;28;20227;-40
2021/01/12 03:24:53;;;;;;;8.43;6.20;;;6.00;49.40;;;;;;5050364;28;20430;-40
2021/01/12 03:27:19;;;;;;;8.13;5.70;;;6.10;49.40;;;;;;5049551;28;20278;-41
2021/01/12 03:29:44;;;;;;;7.90;5.30;;;6.10;49.20;;;;;;5050273;28;20687;-40
2021/01/12 03:32:10;;;;;;;6.93;5.10;;;5.90;49.10;;;;;;5048847;28;20188;-40
2021/01/12 03:34:36;;;;;;;8.90;5.53;;;5.90;49.40;;;;;;5049993;28;20203;-41
2021/01/12 03:37:01;;;;;;;6.33;4.73;;;5.90;49.60;;;;;;5048115;28;20184;-40
2021/01/12 03:39:27;;;;;;;6.10;5.30;;;5.80;49.70;;;;;;5050127;28;20193;-40
2021/01/12 03:41:52;;;;;;;6.13;4.83;;;5.80;49.70;;;;;;5050038;28;20237;-40
2021/01/12 03:44:18;;;;;;;6.83;4.67;;;5.80;49.90;;;;;;5049281;28;20195;-40
2021/01/12 03:46:44;;;;;;;10.00;4.87;;;5.60;50.20;;;;;;5049978;28;20189;-40
2021/01/12 03:49:09;;;;;;;7.40;4.83;;;5.50;50.50;;;;;;5049109;28;20546;-40
2021/01/12 03:51:35;;;;;;;7.60;5.30;;;5.50;50.70;;;;;;5049481;28;20431;-40
2021/01/12 03:54:01;;;;;;;5.30;3.93;;;5.20;51.20;;;;;;5049458;28;20196;-40
2021/01/12 03:56:26;;;;;;;7.73;5.03;;;5.30;51.70;;;;;;5049946;28;20284;-40
2021/01/12 03:58:52;;;;;;;6.20;4.70;;;5.50;51.50;;;;;;5049657;28;20263;-40
2021/01/12 04:01:18;;;;;;;11.87;4.90;;;5.50;51.50;;;;;;5049933;28;20295;-40
2021/01/12 04:03:44;;;;;;;6.20;4.13;;;5.50;51.30;;;;;;5047161;28;20708;-40
2021/01/12 04:06:16;;;;;;;6.37;4.63;;;5.50;51.40;;;;;;5049211;28;20203;-40
2021/01/12 04:08:46;;;;;;;7.00;4.80;;;5.70;51.50;;;;;;5049309;28;20438;-40
2021/01/12 04:11:13;;;;;;;7.67;4.50;;;5.70;51.20;;;;;;5049900;28;20423;-40
2021/01/12 04:13:40;;;;;;;5.80;4.37;;;5.80;51.00;;;;;;5049301;28;20415;-40
2021/01/12 04:16:06;;;;;;;7.80;5.20;;;5.70;51.10;;;;;;5049621;28;20423;-40
2021/01/12 04:18:32;;;;;;;5.43;4.00;;;5.70;51.40;;;;;;5049589;28;20480;-40
2021/01/12 04:20:57;;;;;;;4.97;4.03;;;5.60;51.50;;;;;;5050185;28;20486;-40
2021/01/12 04:23:23;;;;;;;5.57;4.07;;;5.60;51.60;;;;;;5048869;28;20192;-40
2021/01/12 04:25:49;;;;;;;5.40;3.93;;;5.60;51.70;;;;;;5049997;28;20193;-40
2021/01/12 04:28:15;;;;;;;5.10;4.10;;;5.60;51.80;;;;;;5049525;28;20530;-40
2021/01/12 04:30:40;;;;;;;6.57;4.50;;;5.70;51.90;;;;;;5050050;28;20431;-40
2021/01/12 04:33:06;;;;;;;6.30;4.60;;;5.60;52.60;;;;;;5046771;28;20250;-40
2021/01/12 04:35:32;;;;;;;5.77;4.60;;;5.70;52.00;;;;;;5049427;28;20203;-40
2021/01/12 04:37:57;;;;;;;6.73;4.63;;;5.50;52.30;;;;;;5048518;28;20544;-40
2021/01/12 04:40:23;;;;;;;6.40;4.03;;;5.40;52.70;;;;;;5049107;28;20632;-40
2021/01/12 04:42:49;;;;;;;5.63;3.90;;;5.60;53.00;;;;;;5048739;28;20247;-40
2021/01/12 04:45:15;;;;;;;7.03;4.67;;;5.40;52.70;;;;;;5049723;28;20193;-40
2021/01/12 04:47:41;;;;;;;6.00;4.47;;;5.50;53.20;;;;;;5053842;28;20701;-40
2021/01/12 04:50:07;;;;;;;5.63;3.97;;;5.40;53.10;;;;;;5055417;28;20423;-40
2021/01/12 04:52:50;;;;;;;5.70;4.20;;;5.50;53.10;;;;;;5049159;28;20228;-40
2021/01/12 04:55:17;;;;;;;7.07;4.20;;;5.60;52.80;;;;;;5049037;28;20435;-40
2021/01/12 04:57:43;;;;;;;5.33;4.33;;;5.50;52.70;;;;;;5049043;28;20435;-40
2021/01/12 05:00:25;;;;;;;7.73;4.50;;;5.40;52.90;;;;;;5049491;28;20462;-40
2021/01/12 05:03:00;;;;;;;6.13;4.77;;;5.10;53.30;;;;;;5052412;28;21001;-40
2021/01/12 05:05:39;;;;;;;5.23;4.10;;;5.20;53.60;;;;;;5053214;28;20476;-40
2021/01/12 05:08:07;;;;;;;7.20;4.83;;;5.10;53.80;;;;;;5051943;28;20492;-40
2021/01/12 05:10:37;;;;;;;6.60;4.07;;;5.20;53.90;;;;;;5053157;28;20443;-40
2021/01/12 05:13:06;;;;;;;6.27;4.30;;;5.30;53.60;;;;;;5051871;28;20428;-40
2021/01/12 05:15:32;;;;;;;5.27;4.67;;;5.20;53.50;;;;;;5052487;28;20530;-40
2021/01/12 05:18:00;;;;;;;6.60;4.73;;;5.10;53.80;;;;;;5052214;28;20442;-40
2021/01/12 05:20:27;;;;;;;6.30;4.67;;;5.40;53.80;;;;;;5052521;28;20431;-40
2021/01/12 05:23:10;;;;;;;8.80;5.07;;;5.60;53.40;;;;;;5051879;28;20423;-40
2021/01/12 05:25:39;;;;;;;6.93;4.80;;;5.50;53.20;;;;;;5051534;28;20466;-40
2021/01/12 05:28:09;;;;;;;5.83;4.87;;;5.50;53.50;;;;;;5050086;28;20507;-40
2021/01/12 05:30:35;;;;;;;9.30;5.37;;;5.80;53.20;;;;;;5052747;28;20809;-40
2021/01/12 05:33:01;;;;;;;6.90;5.23;;;5.90;52.90;;;;;;5051649;28;20497;-40
2021/01/12 05:35:31;;;;;;;5.63;4.83;;;6.20;52.40;;;;;;5052617;28;20195;-40
2021/01/12 05:38:02;;;;;;;6.87;4.60;;;6.20;51.90;;;;;;5051329;28;20435;-40
2021/01/12 05:40:31;;;;;;;7.23;5.50;;;6.30;51.90;;;;;;5051899;28;20423;-40
2021/01/12 05:43:13;;;;;;;7.80;5.77;;;6.20;51.80;;;;;;5050860;28;20447;-40
2021/01/12 05:45:40;;;;;;;7.63;4.70;;;6.40;52.10;;;;;;5046209;28;20447;-40
2021/01/12 05:48:08;;;;;;;9.67;5.53;;;6.50;52.00;;;;;;5052024;28;20438;-40
2021/01/12 05:50:34;;;;;;;6.80;5.07;;;6.00;52.40;;;;;;5052140;28;20591;-40
2021/01/12 05:53:04;;;;;;;6.63;5.10;;;6.30;53.60;;;;;;5048061;28;20443;-41
2021/01/12 05:55:42;;;;;;;6.67;4.83;;;6.60;54.40;;;;;;5049839;28;20443;-40
2021/01/12 05:58:28;;;;;;;7.57;5.73;;;6.40;53.10;;;;;;5049061;28;20450;-40
2021/01/12 06:00:55;;;;;;;6.50;5.30;;;6.60;53.00;;;;;;5051488;28;20478;-40
2021/01/12 06:03:27;;;;;;;6.27;4.47;;;6.90;52.40;;;;;;5050678;28;20434;-40
2021/01/12 06:05:55;;;;;;;6.90;5.00;;;7.00;52.10;;;;;;5044960;28;20446;-40
2021/01/12 06:08:21;;;;;;;6.43;4.33;;;6.90;52.30;;;;;;5051050;28;20430;-42
2021/01/12 06:10:47;;;;;;;6.50;5.20;;;6.90;52.10;;;;;;5050687;28;21000;-41
2021/01/12 06:13:18;;;;;;;5.53;4.50;;;6.90;52.00;;;;;;5050410;28;20468;-41
2021/01/12 06:15:46;;;;;;;5.27;4.40;;;6.90;52.20;;;;;;5052024;28;20653;-41
2021/01/12 06:18:15;;;;;;;7.33;4.77;;;7.00;52.50;;;;;;5050137;28;20934;-41
2021/01/12 06:20:45;;;;;;;6.23;5.23;;;6.90;52.40;;;;;;5051261;28;20807;-41
2021/01/12 06:23:20;;;;;;;5.87;4.40;;;6.90;52.70;;;;;;5048637;28;20937;-40
2021/01/12 06:25:46;;;;;;;5.23;4.37;;;6.80;52.80;;;;;;5046886;28;20569;-41
2021/01/12 06:28:12;;;;;;;5.20;4.07;;;6.50;53.50;;;;;;5049409;28;20526;-40
2021/01/12 06:30:38;;;;;;;5.57;4.10;;;6.70;53.90;;;;;;5050260;28;20180;-41
2021/01/12 06:33:04;;;;;;;6.13;3.90;;;6.70;53.70;;;;;;5050728;28;20192;-41
2021/01/12 06:35:37;;;;;;;5.20;4.07;;;6.70;53.70;;;;;;5051652;28;20196;-40
2021/01/12 06:38:05;;;;;;;6.60;4.83;;;6.40;54.20;;;;;;5050722;28;20450;-40
2021/01/12 06:40:32;;;;;;;5.57;3.40;;;6.50;54.30;;;;;;5051218;28;20464;-40
2021/01/12 06:42:58;;;;;;;4.07;3.67;;;6.30;54.50;;;;;;5050344;28;20459;-40
2021/01/12 06:45:24;;;;;;;5.63;4.27;;;6.40;54.70;;;;;;5051670;28;20411;-40
2021/01/12 06:47:50;;;;;;;5.97;4.17;;;6.40;54.70;;;;;;5050708;28;20437;-41
2021/01/12 06:50:16;;;;;;;5.00;4.07;;;6.20;54.70;;;;;;5051300;28;20941;-40
2021/01/12 06:52:47;;;;;;;5.97;3.57;;;6.20;55.00;;;;;;5048598;28;20656;-41
2021/01/12 06:55:15;;;;;;;6.07;4.63;;;6.30;55.20;;;;;;5051008;28;20521;-40
2021/01/12 06:57:48;;;;;;;5.77;3.77;;;6.20;55.30;;;;;;5050702;28;20433;-41
2021/01/12 07:00:16;;;;;;;4.80;4.30;;;6.00;55.60;;;;;;5051301;28;20428;-41
2021/01/12 07:02:41;;;;;;;4.87;3.70;;;5.90;55.90;;;;;;5050135;28;20798;-41
2021/01/12 07:05:10;;;;;;;4.27;3.70;;;6.00;55.90;;;;;;5051122;28;20507;-40
2021/01/12 07:07:47;;;;;;;6.10;3.90;;;6.00;55.80;;;;;;5050710;28;20208;-40
2021/01/12 07:10:19;;;;;;;5.20;3.60;;;6.20;55.60;;;;;;5051138;28;20965;-41
2021/01/12 07:12:45;;;;;;;5.63;3.33;;;6.10;55.30;;;;;;5049985;28;20763;-41
2021/01/12 07:15:13;;;;;;;5.10;4.23;;;6.40;55.20;;;;;;5051200;28;20468;-40
2021/01/12 07:17:43;;;;;;;5.70;3.80;;;6.30;54.80;;;;;;5049863;28;20514;-40
2021/01/12 07:20:18;;;;;;;4.43;3.30;;;6.50;54.90;;;;;;5050526;28;20509;-40
2021/01/12 07:23:04;;;;;;;5.73;3.97;;;6.50;54.60;;;;;;5049940;28;20489;-40
2021/01/12 07:25:30;;;;;;;4.93;4.00;;;6.40;54.80;;;;;;5050860;28;20466;-41
2021/01/12 07:28:06;;;;;;;4.30;3.27;;;6.50;54.90;;;;;;5050621;28;20945;-40
2021/01/12 07:30:37;;;;;;;3.90;3.40;;;6.50;54.90;;;;;;5051193;28;20406;-41
2021/01/12 07:33:05;;;;;;;4.17;3.67;;;6.50;55.10;;;;;;5050065;28;20925;-40
2021/01/12 07:35:31;;;;;;;5.17;3.63;;;6.40;55.50;;;;;;5050950;28;20431;-40
2021/01/12 07:37:58;;;;;;;5.97;4.17;;;6.20;56.10;;;;;;5049893;28;20502;-40
2021/01/12 07:40:24;;;;;;;4.60;4.00;;;6.10;57.20;;;;;;5050758;28;20767;-41
2021/01/12 07:42:53;;;;;;;5.77;3.80;;;6.10;56.80;;;;;;5049739;28;20435;-41
2021/01/12 07:45:24;;;;;;;3.77;3.03;;;6.10;57.00;;;;;;5048997;28;20488;-40
2021/01/12 07:47:51;;;;;;;6.00;3.93;;;6.10;57.30;;;;;;5049990;28;20431;-41
2021/01/12 07:50:18;;;;;;;5.17;3.40;;;6.10;57.50;;;;;;5050600;28;21049;-40
2021/01/12 07:52:44;;;;;;;7.10;3.97;;;6.10;57.50;;;;;;5049446;28;20426;-40
2021/01/12 07:55:09;;;;;;;6.20;4.93;;;6.10;57.80;;;;;;5050480;28;20415;-41
2021/01/12 07:57:36;;;;;;;8.03;4.07;;;6.10;57.90;;;;;;5050112;28;20199;-40
2021/01/12 08:00:08;;;;;;;4.97;4.10;;;6.20;57.90;;;;;;5050274;28;20581;-40
2021/01/12 08:02:35;;;;;;;4.50;3.53;;;6.10;58.00;;;;;;5049507;28;20482;-40
2021/01/12 08:05:08;;;;;;;4.23;3.70;;;6.20;57.90;;;;;;5050353;28;20898;-41
2021/01/12 08:07:34;;;;;;;5.20;3.20;;;6.20;57.90;;;;;;5049963;28;20502;-40
2021/01/12 08:10:00;;;;;;;3.30;2.80;;;6.30;57.80;;;;;;5050367;28;20552;-41
2021/01/12 08:12:26;;;;;;;4.40;3.00;;;6.30;57.90;;;;;;5047679;28;20189;-40
2021/01/12 08:14:53;;;;;;;4.37;3.43;;;6.20;57.60;;;;;;5050384;28;20906;-40
2021/01/12 08:17:25;;;;;;;3.83;3.20;;;6.00;58.20;;;;;;5049615;28;21051;-40
2021/01/12 08:19:53;;;;;;;5.43;3.77;;;6.20;58.10;;;;;;5049756;28;20427;-41
2021/01/12 08:22:18;;;;;;;4.20;3.70;;;6.30;58.00;;;;;;5047387;28;20482;-40
2021/01/12 08:24:45;;;;;;;4.97;3.37;;;6.20;57.90;;;;;;5048719;28;20432;-41
2021/01/12 08:27:12;;;;;;;4.50;3.63;;;6.30;58.20;;;;;;5048602;28;20279;-40
2021/01/12 08:29:38;;;;;;;4.27;3.47;;;6.30;58.10;;;;;;5049413;28;20434;-40
2021/01/12 08:32:06;;;;;;;4.57;3.43;;;6.10;58.50;;;;;;5049392;28;20430;-40
2021/01/12 08:34:43;;;;;;;4.87;3.57;;;6.10;58.60;;;;;;5051129;28;20437;-40
2021/01/12 08:37:10;;;;;;;4.10;3.63;;;6.00;59.00;;;;;;5051588;28;20446;-40
2021/01/12 08:39:37;;;;;;;5.10;3.83;;;6.20;59.20;;;;;;5051550;28;20989;-40
2021/01/12 08:42:06;;;;;;;3.13;2.77;;;6.30;58.80;;;;;;5051677;28;20563;-40
2021/01/12 08:44:39;;;;;;;4.67;3.83;;;6.20;58.90;;;;;;5052635;28;20489;-41
2021/01/12 08:47:06;;;;;;;5.60;4.40;;;6.30;59.10;;;;;;5052343;28;20431;-40
2021/01/12 08:49:33;;;;;;;5.60;4.07;;;6.20;59.20;;;;;;5053454;28;20555;-40
2021/01/12 08:52:00;;;;;;;7.53;4.13;;;6.10;59.20;;;;;;5052845;28;20945;-41
2021/01/12 08:54:26;;;;;;;5.93;3.47;;;6.40;59.40;;;;;;5063499;28;20775;-40
2021/01/12 08:57:04;;;;;;;3.80;3.40;;;6.40;59.00;;;;;;5052814;28;20430;-41
2021/01/12 08:59:32;;;;;;;4.47;3.40;;;6.30;58.90;;;;;;5039490;28;20443;-40
2021/01/12 09:01:58;;;;;;;4.17;3.77;;;6.30;59.30;;;;;;5040274;28;20907;-40
2021/01/12 09:04:27;;;;;;;4.47;3.17;;;6.40;59.20;;;;;;5049152;28;20431;-40
2021/01/12 09:07:06;;;;;;;4.10;3.17;;;6.50;58.90;;;;;;5049394;28;20424;-40
2021/01/12 09:09:33;;;;;;;4.73;3.17;;;6.50;59.00;;;;;;5048426;28;20480;-41
2021/01/12 09:12:00;;;;;;;4.37;3.43;;;6.40;59.20;;;;;;5050195;28;20458;-40
2021/01/12 09:14:30;;;;;;;4.27;3.33;;;6.40;59.40;;;;;;5052296;28;20436;-40
2021/01/12 09:17:03;;;;;;;4.50;3.40;;;6.50;59.60;;;;;;5046489;28;20435;-40
2021/01/12 09:19:36;;;;;;;4.97;3.27;;;6.30;59.80;;;;;;5052072;28;20445;-40
2021/01/12 09:22:18;;;;;;;5.43;3.47;;;6.30;60.30;;;;;;5050193;28;20592;-40
2021/01/12 09:24:54;;;;;;;3.60;3.17;;;6.50;60.40;;;;;;5051922;28;20524;-39
2021/01/12 09:27:28;;;;;;;4.00;3.60;;;6.50;60.50;;;;;;5048315;28;20478;-40
2021/01/12 09:29:55;;;;;;;3.17;2.67;;;6.20;61.40;;;;;;5045596;28;20435;-40
2021/01/12 09:32:28;;;;;;;3.70;3.10;;;6.20;62.30;;;;;;5049840;28;20427;-40
2021/01/12 09:34:54;;;;;;;4.07;2.87;;;6.20;62.50;;;;;;5047271;28;20447;-40
2021/01/12 09:37:20;;;;;;;4.10;2.80;;;6.40;62.60;;;;;;5045958;28;20434;-40
2021/01/12 09:39:52;;;;;;;4.17;3.20;;;6.50;62.60;;;;;;5048082;28;20442;-40
2021/01/12 09:42:19;;;;;;;9.80;2.93;;;6.50;62.50;;;;;;5049063;28;20638;-40
2021/01/12 09:44:45;;;;;;;3.97;3.30;;;6.40;62.80;;;;;;5051570;28;20449;-40
2021/01/12 09:47:10;;;;;;;4.70;3.30;;;6.40;63.40;;;;;;5047336;28;20776;-40
2021/01/12 09:49:36;;;;;;;3.70;2.77;;;6.40;63.60;;;;;;5053198;28;20481;-40
2021/01/12 09:52:01;;;;;;;3.43;2.40;;;6.40;64.10;;;;;;5043246;28;20197;-40
2021/01/12 09:54:27;;;;;;;3.53;2.87;;;6.20;64.10;;;;;;5044037;28;20275;-40
2021/01/12 09:56:53;;;;;;;2.93;2.33;;;6.00;65.30;;;;;;5049964;28;20209;-40
2021/01/12 09:59:18;;;;;;;3.10;2.30;;;5.90;65.80;;;;;;5041017;28;20185;-40
2021/01/12 10:01:44;;;;;;;2.80;2.57;;;6.00;66.20;;;;;;5050823;28;20711;-40
2021/01/12 10:04:09;;;;;;;8.87;3.70;;;6.00;66.90;;;;;;5049046;28;20408;-40
2021/01/12 10:06:35;;;;;;;6.93;3.67;;;6.10;67.50;;;;;;5049084;28;20192;-40
2021/01/12 10:09:00;;;;;;;8.73;3.70;;;5.90;67.20;;;;;;5049557;28;20192;-41
2021/01/12 10:11:28;;;;;;;3.60;2.30;;;5.80;68.40;;;;;;5045423;28;20247;-40
2021/01/12 10:13:53;;;;;;;4.17;2.53;;;5.90;68.60;;;;;;5051735;28;20211;-40
2021/01/12 10:16:21;;;;;;;2.90;2.30;;;5.60;68.90;;;;;;5044928;28;20423;-40
2021/01/12 10:18:46;;;;;;;5.10;2.50;;;5.70;69.40;;;;;;5049229;28;20546;-40
2021/01/12 10:21:15;;;;;;;3.13;2.23;;;5.70;69.40;;;;;;5040807;28;20517;-40
2021/01/12 10:23:40;;;;;;;2.47;2.00;;;5.80;69.60;;;;;;5048968;28;20585;-40
2021/01/12 10:26:15;;;;;;;2.90;2.50;;;5.70;70.00;;;;;;5048391;28;20496;-40
2021/01/12 10:28:41;;;;;;;2.43;2.23;;;5.70;70.10;;;;;;5049413;28;20277;-40
2021/01/12 10:31:14;;;;;;;3.73;2.20;;;5.70;70.20;;;;;;5048392;28;20979;-40
2021/01/12 10:33:41;;;;;;;1.83;1.73;;;5.90;70.20;;;;;;5047296;28;20434;-40
2021/01/12 10:36:06;;;;;;;2.37;2.00;;;5.60;69.90;;;;;;5049597;28;20469;-40
2021/01/12 10:38:32;;;;;;;2.73;2.30;;;5.60;70.90;;;;;;5047465;28;20435;-40
2021/01/12 10:40:58;;;;;;;2.00;1.83;;;5.70;70.80;;;;;;5047479;28;20775;-40
2021/01/12 10:43:24;;;;;;;3.37;2.00;;;5.80;70.70;;;;;;5048161;28;20246;-40
2021/01/12 10:45:51;;;;;;;3.27;1.93;;;5.70;70.80;;;;;;5050471;28;20280;-40
2021/01/12 10:48:17;;;;;;;1.83;1.53;;;5.50;70.70;;;;;;5050650;28;20427;-40
2021/01/12 10:50:42;;;;;;;2.60;1.93;;;5.50;71.80;;;;;;5050314;28;20450;-41
2021/01/12 10:53:08;;;;;;;2.53;2.13;;;5.50;71.60;;;;;;5050006;28;20287;-40
2021/01/12 10:55:34;;;;;;;3.93;1.70;;;5.60;71.50;;;;;;5050387;28;20268;-40
2021/01/12 10:57:59;;;;;;;1.67;1.57;;;5.60;71.40;;;;;;5049065;28;20216;-41
2021/01/12 11:00:25;;;;;;;1.83;1.63;;;5.40;71.80;;;;;;5050740;28;20189;-40
2021/01/12 11:02:52;;;;;;;2.77;1.60;;;5.60;71.90;;;;;;5037775;28;20278;-41
2021/01/12 11:05:18;;;;;;;3.03;1.93;;;5.50;71.90;;;;;;5049930;28;20856;-40
2021/01/12 11:07:45;;;;;;;2.30;1.60;;;5.30;71.80;;;;;;5049403;28;20522;-40
2021/01/12 11:10:11;;;;;;;1.30;1.10;;;5.30;72.40;;;;;;5051874;28;20184;-40
2021/01/12 11:12:37;;;;;;;1.77;1.33;;;5.50;73.20;;;;;;5049642;28;20423;-40
2021/01/12 11:15:04;;;;;;;1.10;1.00;;;5.20;72.50;;;;;;5051514;28;20438;-40
2021/01/12 11:17:30;;;;;;;1.43;1.10;;;5.40;73.10;;;;;;5052831;28;20246;-40
2021/01/12 11:19:56;;;;;;;1.53;1.37;;;5.50;72.50;;;;;;5049649;28;21026;-40
2021/01/12 11:22:28;;;;;;;2.03;1.50;;;5.30;72.50;;;;;;5048190;28;20869;-40
2021/01/12 11:25:03;;;;;;;5.40;1.80;;;5.40;73.40;;;;;;5054680;28;20427;-40
2021/01/12 11:27:29;;;;;;;1.23;1.10;;;5.40;72.80;;;;;;5049888;28;20824;-40
2021/01/12 11:29:55;;;;;;;4.23;1.60;;;5.20;73.10;;;;;;5049154;28;20423;-40
2021/01/12 11:32:22;;;;;;;1.33;1.20;;;5.20;73.40;;;;;;5046930;28;20431;-40
2021/01/12 11:34:48;;;;;;;1.83;1.40;;;5.40;73.40;;;;;;5050643;28;20517;-40
2021/01/12 11:37:14;;;;;;;1.30;1.20;;;5.30;73.20;;;;;;5048324;28;20529;-40
2021/01/12 11:39:40;;;;;;;1.30;1.20;;;5.20;73.70;;;;;;5049317;28;20531;-40
2021/01/12 11:42:10;;;;;;;1.43;1.33;;;5.40;74.00;;;;;;5039361;28;20570;-40
2021/01/12 11:44:36;;;;;;;2.17;1.30;;;5.60;73.50;;;;;;5048864;28;20200;-40
2021/01/12 11:47:03;;;;;;;1.77;1.17;;;5.50;72.40;;;;;;5047430;28;20930;-40
2021/01/12 11:49:28;;;;;;;1.23;1.13;;;5.50;72.80;;;;;;5047325;28;20442;-40
2021/01/12 11:51:54;;;;;;;1.00;0.97;;;5.60;73.10;;;;;;5050134;28;20960;-39
2021/01/12 11:54:20;;;;;;;1.63;1.20;;;5.60;72.80;;;;;;5048591;28;20231;-40
2021/01/12 11:56:52;;;;;;;2.00;1.43;;;5.60;72.10;;;;;;5047542;28;20596;-40
2021/01/12 11:59:18;;;;;;;3.43;1.20;;;5.50;72.60;;;;;;5046366;28;20267;-40
2021/01/12 12:01:49;;;;;;;2.83;1.43;;;5.60;73.00;;;;;;5048733;28;20478;-40
2021/01/12 12:04:15;;;;;;;1.30;1.20;;;5.90;73.20;;;;;;5048483;28;20452;-40
2021/01/12 12:06:41;;;;;;;3.03;1.67;;;5.80;72.00;;;;;;5048887;28;20505;-40
2021/01/12 12:09:07;;;;;;;2.47;1.20;;;5.60;72.50;;;;;;5053453;28;20414;-40
2021/01/12 12:11:39;;;;;;;1.50;1.10;;;5.50;72.60;;;;;;5055120;28;20431;-40
2021/01/12 12:14:07;;;;;;;1.67;1.20;;;5.60;73.10;;;;;;5052786;28;20423;-40
2021/01/12 12:16:34;;;;;;;1.73;1.27;;;5.80;73.20;;;;;;5057583;28;20430;-40
2021/01/12 12:19:00;;;;;;;1.17;1.10;;;5.90;71.80;;;;;;5054661;28;20513;-40
2021/01/12 12:21:26;;;;;;;1.10;0.87;;;5.80;71.30;;;;;;5054209;28;20483;-40
2021/01/12 12:23:52;;;;;;;1.33;1.23;;;5.90;72.30;;;;;;5053144;28;20569;-40
2021/01/12 12:26:17;;;;;;;3.10;1.13;;;5.80;72.10;;;;;;5053926;28;20525;-40
2021/01/12 12:28:44;;;;;;;1.00;0.97;;;5.60;72.00;;;;;;5055934;28;20238;-40
2021/01/12 12:31:10;;;;;;;1.20;1.10;;;5.60;72.40;;;;;;5053489;28;20652;-40
2021/01/12 12:33:36;;;;;;;2.00;0.93;;;5.60;72.30;;;;;;5052415;28;20480;-40
2021/01/12 12:36:10;;;;;;;3.73;1.13;;;5.70;72.40;;;;;;5053976;28;20990;-40
2021/01/12 12:38:38;;;;;;;1.00;0.93;;;5.90;72.40;;;;;;5052075;28;20655;-40
2021/01/12 12:41:09;;;;;;;1.47;1.00;;;5.70;71.50;;;;;;5046066;28;20509;-40
2021/01/12 12:43:35;;;;;;;3.00;1.23;;;5.70;72.20;;;;;;5056160;28;20914;-40
2021/01/12 12:46:00;;;;;;;1.20;1.10;;;5.80;72.50;;;;;;5060077;28;20447;-40
2021/01/12 12:48:26;;;;;;;1.87;1.30;;;5.70;71.80;;;;;;5050841;28;20824;-40
2021/01/12 12:50:53;;;;;;;2.80;1.30;;;5.80;73.00;;;;;;5046542;28;20203;-41
2021/01/12 12:53:19;;;;;;;1.10;0.97;;;5.70;73.20;;;;;;5050522;28;20184;-40
2021/01/12 12:55:45;;;;;;;1.50;1.33;;;5.60;72.30;;;;;;5050154;28;20455;-40